सभी
Mangaia Airport (Mangaia (Auau Enua)) MGS मौसम
|
Mangaia (Auau Enua) (MGS / NCMG)
स्वच्छ आकाश
हल्की हवाएं |
|
24 °C |
There is no TAF data available at MGS or any nearby airports.
Recent MGS METAR history
| Date | Time (-10) | Flight Rules | Wind Dir. | Speed | Type | Height AGL (ft) | Visibility | Temp (°C) | Temp (°F) | Dew Point (°C) | Dew Point (°F) | Rel. Humid. | Pressure | Density Altitude | Remarks |
|---|---|---|---|---|---|---|---|---|---|---|---|---|---|---|---|
| 02-मई | 20:00 | n/a | 290° | 4 kt | Missing | 24° | 75° | 23° | 73° | 94% | 1010 mb | 1,186 ft | |||
| 02-मई | 19:00 | n/a | 290° | 2 kt | Missing | 26° | 78° | 24° | 75° | 89% | 1010 mb | 1,426 ft | |||
| 02-मई | 18:00 | n/a | 10° | 3 kt | Missing | 26° | 78° | 23° | 73° | 84% | 1009 mb | 1,455 ft | |||
| 02-मई | 17:00 | n/a | 310° | 3 kt | Missing | 29° | 84° | 24° | 75° | 74% | 1009 mb | 1,815 ft | |||
| 02-मई | 16:00 | n/a | 310° | 4 kt | Missing | 29° | 84° | 24° | 75° | 74% | 1009 mb | 1,815 ft | |||
| 02-मई | 15:00 | n/a | 310° | 3 kt | Missing | 29° | 84° | 24° | 75° | 74% | 1009 mb | 1,815 ft | |||
| 02-मई | 14:00 | n/a | 320° | 4 kt | Missing | 29° | 84° | 24° | 75° | 74% | 1010 mb | 1,786 ft | |||
| 02-मई | 13:00 | n/a | 320° | 4 kt | Missing | 29° | 84° | 24° | 75° | 74% | 1011 mb | 1,756 ft | |||
| 02-मई | 12:00 | n/a | 330° | 4 kt | Missing | 30° | 86° | 24° | 75° | 70% | 1011 mb | 1,876 ft | |||
| 02-मई | 11:00 | n/a | 330° | 3 kt | Missing | 29° | 84° | 24° | 75° | 74% | 1012 mb | 1,727 ft | |||
| 02-मई | 10:00 | n/a | 20° | 3 kt | Missing | 27° | 80° | 24° | 75° | 84% | 1012 mb | 1,487 ft | |||
| 02-मई | 09:00 | n/a | 50° | 2 kt | Missing | 25° | 77° | 25° | 77° | 100% | 1011 mb | 1,276 ft | |||
| 02-मई | 08:00 | n/a | 80° | 3 kt | Missing | 23° | 73° | 23° | 73° | 100% | 1010 mb | 1,066 ft | |||
| 02-मई | 07:00 | n/a | 70° | 3 kt | Missing | 23° | 73° | 22° | 71° | 94% | 1010 mb | 1,066 ft | |||
| 02-मई | 06:00 | n/a | 50° | 3 kt | Missing | 22° | 71° | 22° | 71° | 100% | 1009 mb | 975 ft | |||
| 02-मई | 05:00 | n/a | 60° | 3 kt | Missing | 22° | 71° | 22° | 71° | 100% | 1010 mb | 946 ft | |||
| 02-मई | 04:00 | n/a | 90° | 3 kt | Missing | 22° | 71° | 22° | 71° | 100% | 1010 mb | 946 ft | |||
| 02-मई | 03:00 | n/a | 90° | 3 kt | Missing | 22° | 71° | 22° | 71° | 100% | 1010 mb | 946 ft | |||
| 02-मई | 02:00 | n/a | 90° | 3 kt | Missing | 22° | 71° | 22° | 71° | 100% | 1011 mb | 916 ft | |||
| 02-मई | 01:00 | n/a | 90° | 3 kt | Missing | 22° | 71° | 22° | 71° | 100% | 1011 mb | 916 ft | |||
| 02-मई | 00:00 | n/a | 90° | 3 kt | Missing | 23° | 73° | 22° | 71° | 94% | 1011 mb | 1,036 ft | |||
| 01-मई | 23:00 | n/a | 100° | 3 kt | Missing | 23° | 73° | 23° | 73° | 100% | 1011 mb | 1,036 ft | |||
| 01-मई | 22:00 | n/a | 80° | 3 kt | Missing | 24° | 75° | 23° | 73° | 94% | 1011 mb | 1,156 ft | |||
| 01-मई | 21:00 | n/a | 100° | 3 kt | Missing | 24° | 75° | 23° | 73° | 94% | 1011 mb | 1,156 ft |
लॉगिन
| Your browser is unsupported. अपना ब्राऊजर अपग्रेड करें |
